• Join FlightAware (Why Join?)
  • Login
  • US Flag 
05:54AM EDT


 

Airport Tracker/Info


-or-


 

Live Flight TrackerFlight Track Log ✈ ASQ4283 ✈ 09-Jul-2013 ✈ KORD - KGSP

Flight Track Log - Related Links

Times and Time Zones

All times are in EDT time to prevent confusion due to time zone crossing. See the ASQ4283 flight status page for this flight to view local times or setup timezone preferences in your user account.

Time Position Orientation Groundspeed Altitude Reporting Facility
EDT Latitude Longitude Course Direction KTS MPH feet Rate Location/Type
08:21AM 41.9167 -87.9167 169° South 187 215 2,600  Level Chicago TRACON
08:22AM 41.8667 -87.8833 154° Southeast 204 235 4,600 1,500 Climbing Chicago TRACON
08:23AM 41.7186 -87.6695 157° South  Level Estimated
08:23AM 41.8297 -87.8481 145° Southeast 211 243 5,500  Level Chicago Center
08:24AM 41.6309 -87.5909 156° South  Level Estimated
08:24AM 41.7611 -87.8008 153° Southeast 267 307 7,100  Level Chicago Center
08:25AM 41.5253 -87.5865 178° South  Level FlightAware Approximate
08:25AM 41.6883 -87.7519 153° Southeast 289 333 9,000  Level Chicago Center
08:26AM 41.4379 -87.5074 169° South  Level Estimated
08:26AM 41.6153 -87.7019 153° Southeast 295 339 10,800  Level Chicago Center
08:27AM 41.5222 -87.6378 153° Southeast 311 358 12,600 1,140 Climbing Chicago Center
08:28AM 41.4394 -87.5817 153° Southeast 328 377 13,200 720 Climbing Chicago Center
08:29AM 41.3386 -87.5583 170° South 364 419 14,100 900 Climbing Chicago Center
08:30AM 41.2350 -87.5394 172° South 372 428 15,100 960 Climbing Chicago Center
08:31AM 41.1328 -87.5158 170° South 372 428 16,100 960 Climbing Chicago Center
08:32AM 41.0286 -87.4869 168° South 381 438 17,200 1,020 Climbing Chicago Center
08:33AM 40.9056 -87.4539 169° South 378 435 18,300 960 Climbing Chicago Center
08:34AM 40.8003 -87.4275 169° South 383 441 19,300 960 Climbing Chicago Center
08:35AM 40.6947 -87.3997 169° South 387 445 20,300 960 Climbing Chicago Center
08:36AM 40.5892 -87.3717 169° South 388 447 21,300 960 Climbing Chicago Center
08:37AM 40.4833 -87.3450 169° South 387 445 22,400 960 Climbing Chicago Center
08:38AM 40.3800 -87.3028 163° South 392 451 23,400 1,200 Climbing Chicago Center
08:39AM 40.2564 -87.2444 160° South 395 455 25,000 1,380 Climbing Chicago Center
08:40AM 40.1614 -87.1994 160° South 374 430 26,300 1,020 Climbing Chicago Center
08:41AM 40.0642 -87.1539 160° South 370 426 27,100 720 Climbing Indianapolis Center
08:42AM 39.9656 -87.1017 158° South 382 440 27,800 660 Climbing Indianapolis Center
08:43AM 39.8733 -87.0236 147° Southeast 398 458 28,500 660 Climbing Indianapolis Center
08:44AM 39.7825 -86.9444 146° Southeast 395 455 29,200 720 Climbing Indianapolis Center
08:45AM 39.6867 -86.8672 148° Southeast 406 467 30,100 960 Climbing Indianapolis Center
08:46AM 39.5742 -86.7736 147° Southeast 405 466 31,300 1,020 Climbing Indianapolis Center
08:47AM 39.4817 -86.6950 147° Southeast 403 464 32,200 780 Climbing Indianapolis Center
08:48AM 39.3869 -86.6178 148° Southeast 407 468 33,000 720 Climbing Indianapolis Center
08:49AM 39.2919 -86.5383 147° Southeast 410 472 33,800 720 Climbing Indianapolis Center
08:50AM 39.1956 -86.4583 147° Southeast 414 476 34,600 540 Climbing Indianapolis Center
08:51AM 39.0775 -86.3625 148° Southeast 421 484 35,000 180 Climbing Indianapolis Center
08:52AM 38.9739 -86.2778 148° Southeast 438 504 35,000  Level Indianapolis Center
08:54AM 38.8725 -86.1944 147° Southeast 458 527 35,000  Level Indianapolis Center
08:55AM 38.7600 -86.1039 148° Southeast 470 541 35,000  Level Indianapolis Center
08:56AM 38.6239 -85.9939 148° Southeast 476 548 35,000  Level Indianapolis Center
08:57AM 38.5114 -85.9036 148° Southeast 476 548 35,000  Level Indianapolis Center
08:58AM 38.4000 -85.8142 148° Southeast 472 543 35,000  Level Indianapolis Center
08:59AM 38.2892 -85.7256 148° Southeast 469 540 35,000  Level Indianapolis Center
09:00AM 38.1772 -85.6367 148° Southeast 471 542 35,000  Level Indianapolis Center
09:01AM 38.0717 -85.5364 143° Southeast 473 544 35,000  Level Indianapolis Center
09:02AM 37.9850 -85.4128 132° Southeast 468 539 35,000  Level Indianapolis Center
09:03AM 37.8972 -85.2894 132° Southeast 470 541 35,000  Level Indianapolis Center
09:04AM 37.8019 -85.1569 132° Southeast 467 537 35,000  Level Indianapolis Center
09:05AM 37.7142 -85.0350 132° Southeast 469 540 35,000  Level Indianapolis Center
09:06AM 37.6108 -84.8936 133° Southeast 469 540 35,000  Level Indianapolis Center
09:07AM 37.5231 -84.7739 133° Southeast 467 537 35,000  Level Indianapolis Center
09:08AM 37.4350 -84.6531 133° Southeast 468 539 35,000  Level Indianapolis Center
09:09AM 37.3467 -84.5342 133° Southeast 467 537 35,000 -60 Level Indianapolis Center
09:10AM 37.2575 -84.4144 133° Southeast 468 539 34,900 -600 Descending Indianapolis Center
09:11AM 37.1550 -84.2744 133° Southeast 468 539 33,800 -1,200 Descending Indianapolis Center
09:12AM 37.0675 -84.1569 133° Southeast 465 535 32,500 -1,500 Descending Indianapolis Center
09:13AM 36.9811 -84.0389 132° Southeast 461 531 30,700 -2,220 Descending Indianapolis Center
09:14AM 36.8928 -83.9144 132° Southeast 474 545 28,000 -2,580 Descending Indianapolis Center
09:15AM 36.8053 -83.7939 132° Southeast 473 544 25,400 -1,980 Descending Indianapolis Center
09:16AM 36.7058 -83.6578 132° Southeast 461 531 24,000 -720 Descending Indianapolis Center
09:17AM 36.6219 -83.5408 132° Southeast 456 525 24,000  Level Indianapolis Center
09:18AM 36.5378 -83.4247 132° Southeast 455 524 24,000  Level Indianapolis Center
09:19AM 36.4531 -83.3086 132° Southeast 455 524 24,000  Level Indianapolis Center
09:20AM 36.3678 -83.1933 133° Southeast 457 526 24,000  Level Indianapolis Center
09:21AM 36.2903 -83.0933 134° Southeast 457 526 24,000  Level Atlanta Center
09:22AM 36.2039 -82.9733 132° Southeast 462 532 24,000  Level Atlanta Center
09:23AM 36.1172 -82.8564 133° Southeast 462 532 24,000  Level Atlanta Center
09:24AM 36.0306 -82.7394 132° Southeast 462 532 24,000  Level Atlanta Center
09:25AM 35.9253 -82.6514 146° Southeast 455 524 24,000  Level Atlanta Center
09:26AM 35.8158 -82.5739 150° Southeast 460 529 24,000 -1,080 Level Atlanta Center
09:27AM 35.7192 -82.5042 150° Southeast 458 527 21,900 -2,460 Descending Atlanta Center
09:28AM 35.6200 -82.4267 148° Southeast 437 503 19,100 -2,700 Descending Atlanta Center
09:29AM 35.5211 -82.3547 149° Southeast 420 483 16,600 -2,700 Descending Atlanta Center
09:30AM 35.4200 -82.2828 150° Southeast 402 463 13,800 -2,640 Descending Atlanta Center
09:31AM 35.3214 -82.2619 170° South 363 418 11,400 -1,800 Descending Atlanta Center
09:32AM 35.2317 -82.2539 176° South 344 396 10,300 -1,500 Descending Atlanta Center
09:33AM 35.1503 -82.2453 175° South 311 358 8,500 -1,800 Descending Atlanta Center
09:34AM 35.0808 -82.2114 158° South 285 328 6,800 -1,620 Descending Atlanta Center
09:35AM 35.0178 -82.1822 159° South 256 295 5,300 -1,500 Descending Atlanta Center